Hlavní strana
METAR-TAF:

METAR-TAF

Letiště :

Vardø, Norsko

zeměpisná šířka: 70-21N, zeměpisná délka: 031-03E, výška: 12 m

Aktuální stav počasí

Zpráva byla vytvořena před 40 minutami, v 14:50 UTC
vítr z různých směrů 3 kt
Teplota -4°C
Vlhkost vzduchu 68%
Tlak 1012 hPa
Viditelnost 10 km a více
Skoro jasno ve výšce 3600 ft
Polojasno ve výšce 5500 ft
přeháňky v blízkosti

METAR: ENSS 191450Z VRB03KT 9999 VCSH FEW036 SCT055 M04/M09 Q1012 RMK WIND 500FT /////KT

Čas: 16:30 (15:30 UTC)


TAF: chybějící

Stav a předpovědi počasí z více než 4 000 letišť (zprávy METAR a TAF).

Červené a žluté tečky na mapě představují dostupné meteorologické stanice.

Když kurzor umístíte na tečku, zobrazí se název stanice.

Pak kliknutím zobrazíte stav a předpověď počasí.

Chcete-li změnit mapu, kliknutím na zelené tlačítko se znaménkem +mapu přiblížíte, kliknutím na zelené tlačítko se znaménkem – mapu oddálíte a kliknutím na zelené šipky přejdete na sousední mapy.


METAR-TAF: